Golden Virgo — VRPH6 — position and weather

sailwx.info

Track history (hours):
 
Tides and Currents Weather Stations Pressure Air Temp Water Temp Dewpoint Dewpoint Depression Visibility Wind Speed Wind Dir Waves Ship Positions

Golden Virgo

Last reported at 2017-Nov-28 17:48 UTC. Time now 2017-Dec-13 05:35 UTC.
Position N 01°15' E 104°06'.
Warning: this ship's position is 14 days out of date.

Length 200 m; draft 10.7 m.

Type: Cargo ship. MMSI: 477510900.

Date/timePositionNaut miles runAvg speedWind from/ knotsBaromVisibWave heightAir tempDewpointWater temp
2017-Nov-28 17:48N 01°15' E 104°06'412.1
2017-Nov-28 17:30N 01°15' E 104°02'4 7.6
2017-Nov-28 17:00N 01°14' E 103°58'2 3.9
2017-Nov-28 16:30N 01°14' E 103°56'5 9.7
2017-Nov-28 16:00N 01°12' E 103°52'1212.5
2017-Nov-28 15:00N 01°04' E 103°42'510.3
2017-Nov-28 14:30N 01°04' E 103°37'612.3
2017-Nov-28 14:00N 01°07' E 103°31'611.9
2017-Nov-28 13:29N 01°10' E 103°26'711.7
2017-Nov-28 12:54N 01°14' E 103°21'511.6
2017-Nov-28 12:30N 01°17' E 103°17'  
Track history (hours):
 
Tides and Currents Weather Stations Pressure Air Temp Water Temp Dewpoint Dewpoint Depression Visibility Wind Speed Wind Dir Waves Ship Positions

Golden Virgo

Last reported at 2017-Nov-28 17:48 UTC. Time now 2017-Dec-13 05:35 UTC.
Position N 01°15' E 104°06'.
Warning: this ship's position is 14 days out of date.

Length 200 m; draft 10.7 m.

Type: Cargo ship. MMSI: 477510900.

Date/timePositionNaut miles runAvg speedWind from/ knotsBaromVisibWave heightAir tempDewpointWater temp
2017-Nov-28 17:48N 01°15' E 104°06'412.1
2017-Nov-28 17:30N 01°15' E 104°02'4 7.6
2017-Nov-28 17:00N 01°14' E 103°58'2 3.9
2017-Nov-28 16:30N 01°14' E 103°56'5 9.7
2017-Nov-28 16:00N 01°12' E 103°52'1212.5
2017-Nov-28 15:00N 01°04' E 103°42'510.3
2017-Nov-28 14:30N 01°04' E 103°37'612.3
2017-Nov-28 14:00N 01°07' E 103°31'611.9
2017-Nov-28 13:29N 01°10' E 103°26'711.7
2017-Nov-28 12:54N 01°14' E 103°21'511.6
2017-Nov-28 12:30N 01°17' E 103°17'  

Dump ship's entire track history